createdAt,value
2023-03-19T00:00:54.891Z,2.50
2023-03-19T00:03:22.678Z,1.65
2023-03-19T00:05:54.036Z,1.30
2023-03-19T00:08:22.680Z,1.40
2023-03-19T00:10:51.034Z,1.38
2023-03-19T00:13:19.415Z,2.40
2023-03-19T00:15:47.515Z,1.20
2023-03-19T00:18:15.416Z,1.52
2023-03-19T00:20:43.604Z,1.67
2023-03-19T00:23:11.373Z,1.33
2023-03-19T00:25:38.919Z,1.20
2023-03-19T00:28:06.516Z,1.17
2023-03-19T00:30:34.340Z,1.38
2023-03-19T00:33:02.372Z,1.88
2023-03-19T00:35:30.282Z,1.17
2023-03-19T00:37:57.981Z,1.25
2023-03-19T00:40:25.567Z,1.23
2023-03-19T00:42:53.797Z,2.00
2023-03-19T00:45:22.007Z,1.60
2023-03-19T00:47:50.370Z,1.73
2023-03-19T00:50:18.835Z,1.30
2023-03-19T00:52:46.427Z,1.35
2023-03-19T00:55:14.340Z,2.35
2023-03-19T00:57:42.077Z,1.23
2023-03-19T01:00:12.661Z,1.30
2023-03-19T01:02:40.515Z,1.60
2023-03-19T01:05:09.230Z,1.60
2023-03-19T01:07:40.019Z,1.10
2023-03-19T01:10:10.289Z,1.10
2023-03-19T01:12:38.629Z,1.20
2023-03-19T01:15:07.143Z,1.67
2023-03-19T01:17:34.767Z,1.42
2023-03-19T01:20:02.464Z,1.42
2023-03-19T01:22:30.323Z,2.83
2023-03-19T01:25:01.870Z,1.27
2023-03-19T01:27:29.649Z,1.27
2023-03-19T01:29:57.553Z,1.27
2023-03-19T01:32:48.245Z,1.35
2023-03-19T01:35:34.850Z,1.92
2023-03-19T01:38:03.379Z,1.35
2023-03-19T01:40:32.896Z,2.05
2023-03-19T01:43:14.681Z,1.30
2023-03-19T01:45:55.573Z,1.45
2023-03-19T01:48:59.885Z,1.67
2023-03-19T01:51:35.871Z,1.20
2023-03-19T01:54:21.631Z,1.58
2023-03-19T01:57:00.265Z,1.70
2023-03-19T01:59:50.253Z,1.20
2023-03-19T02:02:33.130Z,2.75
2023-03-19T02:05:14.552Z,1.95
2023-03-19T02:07:44.239Z,1.17
2023-03-19T02:10:15.022Z,1.20
2023-03-19T02:12:43.410Z,2.15
2023-03-19T02:15:11.618Z,1.45
2023-03-19T02:17:41.053Z,1.30
2023-03-19T02:20:22.831Z,1.30
2023-03-19T02:23:27.278Z,0.88
2023-03-19T02:26:07.404Z,1.30
2023-03-19T02:28:40.016Z,1.85
2023-03-19T02:31:12.106Z,1.30
2023-03-19T02:33:42.842Z,2.40
2023-03-19T02:36:17.735Z,1.17
2023-03-19T02:38:47.919Z,2.28
2023-03-19T02:41:15.688Z,1.98
2023-03-19T02:43:43.294Z,1.45
2023-03-19T02:46:13.263Z,1.20
2023-03-19T02:48:41.863Z,1.05
2023-03-19T02:51:13.693Z,1.48
2023-03-19T02:53:41.402Z,2.50
2023-03-19T02:56:08.986Z,1.40
2023-03-19T02:58:36.919Z,1.70
2023-03-19T03:01:04.763Z,1.20
2023-03-19T03:03:32.634Z,1.50
2023-03-19T03:06:00.487Z,1.70
2023-03-19T03:08:28.370Z,1.58
2023-03-19T03:10:55.940Z,1.67
2023-03-19T03:13:23.648Z,1.83
2023-03-19T03:15:51.659Z,2.10
2023-03-19T03:18:19.524Z,1.40
2023-03-19T03:20:47.477Z,1.63
2023-03-19T03:23:15.031Z,2.15
2023-03-19T03:25:42.698Z,2.13
2023-03-19T03:28:13.335Z,1.63
2023-03-19T03:30:41.682Z,1.65
2023-03-19T03:33:09.812Z,2.05
2023-03-19T03:35:38.024Z,2.35
2023-03-19T03:38:06.773Z,2.58
2023-03-19T03:40:34.967Z,1.70
2023-03-19T03:43:02.891Z,1.75
2023-03-19T03:45:32.631Z,1.30
2023-03-19T03:48:00.753Z,1.85
2023-03-19T03:50:28.461Z,1.70
2023-03-19T03:52:59.375Z,2.47
2023-03-19T03:55:28.260Z,2.35
2023-03-19T03:57:56.235Z,1.83
2023-03-19T04:00:24.519Z,2.67
2023-03-19T04:02:52.100Z,1.52
2023-03-19T04:05:19.718Z,2.05
2023-03-19T04:07:47.888Z,2.20
2023-03-19T04:10:15.786Z,2.40
2023-03-19T04:12:43.365Z,1.73
2023-03-19T04:15:12.163Z,1.63
2023-03-19T04:17:42.747Z,1.95
2023-03-19T04:20:16.300Z,1.85
2023-03-19T04:22:44.663Z,1.95
2023-03-19T04:25:12.454Z,1.80
2023-03-19T04:27:43.710Z,2.03
2023-03-19T04:30:12.755Z,1.95
2023-03-19T04:32:40.641Z,1.73
2023-03-19T04:35:09.019Z,2.03
2023-03-19T04:37:36.799Z,2.85
2023-03-19T04:40:05.889Z,1.85
2023-03-19T04:42:36.264Z,1.92
2023-03-19T04:45:11.968Z,1.52
2023-03-19T04:47:43.405Z,2.53
2023-03-19T04:50:14.682Z,2.40
2023-03-19T04:52:44.686Z,1.80
2023-03-19T04:55:13.357Z,1.98
2023-03-19T04:57:50.912Z,1.58
2023-03-19T05:00:21.964Z,2.83
2023-03-19T05:02:49.966Z,3.38
2023-03-19T05:05:18.186Z,2.08
2023-03-19T05:07:46.431Z,1.85
2023-03-19T05:10:14.292Z,3.17
2023-03-19T05:12:42.407Z,2.70
2023-03-19T05:15:12.278Z,2.38
2023-03-19T05:17:46.835Z,1.75
2023-03-19T05:20:22.067Z,2.38
2023-03-19T05:22:56.156Z,1.92
2023-03-19T05:25:35.425Z,2.40
2023-03-19T05:28:05.100Z,1.95
2023-03-19T05:30:33.234Z,2.10
2023-03-19T05:33:15.344Z,2.65
2023-03-19T05:35:46.243Z,2.20
2023-03-19T05:38:23.747Z,4.10
2023-03-19T05:41:06.065Z,1.88
2023-03-19T05:46:22.274Z,2.67
2023-03-19T05:48:50.490Z,2.45
2023-03-19T05:51:18.322Z,2.00
2023-03-19T05:53:47.407Z,3.10
2023-03-19T05:56:34.716Z,2.28
2023-03-19T05:59:22.176Z,2.22
2023-03-19T06:02:10.384Z,2.95
2023-03-19T06:04:39.311Z,3.03
2023-03-19T06:07:07.671Z,2.55
2023-03-19T06:09:37.552Z,2.88
2023-03-19T06:12:06.448Z,2.50
2023-03-19T06:14:40.091Z,2.63
2023-03-19T06:17:44.707Z,2.80
2023-03-19T06:20:15.791Z,4.35
2023-03-19T06:22:44.685Z,3.90
2023-03-19T06:25:13.006Z,2.97
2023-03-19T06:30:22.037Z,2.85
2023-03-19T06:32:50.582Z,2.72
2023-03-19T06:35:18.491Z,2.70
2023-03-19T06:37:49.287Z,3.42
2023-03-19T06:40:17.031Z,4.10
2023-03-19T06:42:46.678Z,3.90
2023-03-19T06:45:18.759Z,3.13
2023-03-19T06:47:47.697Z,3.55
2023-03-19T06:50:16.891Z,3.40
2023-03-19T06:52:45.173Z,4.18
2023-03-19T06:55:12.816Z,4.13
2023-03-19T06:57:40.820Z,4.30
2023-03-19T07:00:12.269Z,3.78
2023-03-19T07:02:40.605Z,3.13
2023-03-19T07:05:08.522Z,3.63
2023-03-19T07:07:36.212Z,4.47
2023-03-19T07:10:04.275Z,3.00
2023-03-19T07:12:31.938Z,4.85
2023-03-19T07:15:00.186Z,4.22
2023-03-19T07:17:27.765Z,4.53
2023-03-19T07:19:55.346Z,5.38
2023-03-19T07:22:23.106Z,3.90
2023-03-19T07:24:51.596Z,4.05
2023-03-19T07:27:19.240Z,5.43
2023-03-19T07:29:46.941Z,4.55
2023-03-19T07:32:14.706Z,4.38
2023-03-19T07:34:42.223Z,3.22
2023-03-19T07:37:09.836Z,3.90
2023-03-19T07:39:37.650Z,3.55
2023-03-19T07:42:06.019Z,4.43
2023-03-19T07:44:33.725Z,5.13
2023-03-19T07:47:01.568Z,3.53
2023-03-19T07:49:29.137Z,5.43
2023-03-19T07:51:56.822Z,4.45
2023-03-19T07:54:24.490Z,5.15
2023-03-19T07:56:52.000Z,4.05
2023-03-19T07:59:19.887Z,4.32
2023-03-19T08:01:47.599Z,3.55
2023-03-19T08:04:15.518Z,4.50
2023-03-19T08:06:43.118Z,5.45
2023-03-19T08:09:11.956Z,3.90
2023-03-19T08:11:41.982Z,4.07
2023-03-19T08:14:12.137Z,3.42
2023-03-19T08:16:42.415Z,4.07
2023-03-19T08:19:10.319Z,2.92
2023-03-19T08:21:47.057Z,3.63
2023-03-19T08:24:15.490Z,3.40
2023-03-19T08:26:43.202Z,2.88
2023-03-19T08:29:14.359Z,2.80
2023-03-19T08:31:41.983Z,3.10
2023-03-19T08:34:10.541Z,2.90
2023-03-19T08:36:38.098Z,3.20
2023-03-19T08:39:05.775Z,3.80
2023-03-19T08:41:33.375Z,2.42
2023-03-19T08:44:01.015Z,2.85
2023-03-19T08:46:32.028Z,4.72
2023-03-19T08:49:00.767Z,3.13
2023-03-19T08:51:31.072Z,6.05
2023-03-19T08:53:58.694Z,3.00
2023-03-19T08:56:26.287Z,2.95
2023-03-19T08:58:56.872Z,3.65
2023-03-19T09:01:25.249Z,3.53
2023-03-19T09:03:53.191Z,3.72
2023-03-19T09:06:20.718Z,2.85
2023-03-19T09:08:48.380Z,2.45
2023-03-19T09:11:17.331Z,2.53
2023-03-19T09:13:44.989Z,2.90
2023-03-19T09:16:12.754Z,2.85
2023-03-19T09:18:43.414Z,2.65
2023-03-19T09:21:11.645Z,2.38
2023-03-19T09:23:39.169Z,2.28
2023-03-19T09:26:06.825Z,2.00
2023-03-19T09:28:36.559Z,1.95
2023-03-19T09:31:07.532Z,2.67
2023-03-19T09:33:35.338Z,2.30
2023-03-19T09:36:03.520Z,2.30
2023-03-19T09:38:31.296Z,2.00
2023-03-19T09:41:10.956Z,2.60
2023-03-19T09:43:56.901Z,1.15
2023-03-19T09:46:48.833Z,1.63
2023-03-19T09:49:29.007Z,0.90
2023-03-19T09:52:20.735Z,0.80
2023-03-19T09:54:52.684Z,0.82
2023-03-19T09:57:20.936Z,1.00
2023-03-19T09:59:49.172Z,1.17
2023-03-19T10:02:22.500Z,2.00
2023-03-19T10:05:27.373Z,1.55
2023-03-19T10:08:00.825Z,0.65
2023-03-19T10:10:43.649Z,0.90
2023-03-19T10:13:41.454Z,0.73
2023-03-19T10:16:19.362Z,1.40
2023-03-19T10:18:52.926Z,0.90
2023-03-19T10:21:34.251Z,0.90
2023-03-19T10:24:14.045Z,1.17
2023-03-19T10:26:41.992Z,2.20
2023-03-19T10:29:15.482Z,1.10
2023-03-19T10:32:08.596Z,1.20
2023-03-19T10:34:39.740Z,0.88
2023-03-19T10:37:13.245Z,1.55
2023-03-19T10:39:45.808Z,1.33
2023-03-19T10:42:33.399Z,1.00
2023-03-19T10:45:22.542Z,1.45
2023-03-19T10:47:52.206Z,1.30
2023-03-19T10:50:23.468Z,1.48
2023-03-19T10:52:52.946Z,1.30
2023-03-19T10:55:25.783Z,1.75
2023-03-19T10:58:03.352Z,1.08
2023-03-19T11:00:33.413Z,1.00
2023-03-19T11:03:05.022Z,1.52
2023-03-19T11:05:34.685Z,1.05
2023-03-19T11:08:05.625Z,2.13
2023-03-19T11:10:36.023Z,0.77
2023-03-19T11:13:14.611Z,0.90
2023-03-19T11:15:42.621Z,1.55
2023-03-19T11:18:21.169Z,0.98
2023-03-19T11:21:02.333Z,1.10
2023-03-19T11:23:31.613Z,0.88
2023-03-19T11:26:02.878Z,0.70
2023-03-19T11:28:33.828Z,0.70
2023-03-19T11:31:24.254Z,0.80
2023-03-19T11:34:29.383Z,0.60
2023-03-19T11:37:21.076Z,1.50
2023-03-19T11:40:11.033Z,0.63
2023-03-19T11:42:53.185Z,0.60
2023-03-19T11:45:33.551Z,0.60
2023-03-19T11:48:30.307Z,0.80
2023-03-19T11:51:13.914Z,0.50
2023-03-19T11:53:59.616Z,0.88
2023-03-19T11:57:11.706Z,0.68
2023-03-19T11:59:55.220Z,0.82
2023-03-19T12:02:58.259Z,1.10
2023-03-19T12:05:35.475Z,0.65
2023-03-19T12:08:13.798Z,0.70
2023-03-19T12:11:02.287Z,1.02
2023-03-19T12:13:45.065Z,0.63
2023-03-19T12:16:30.471Z,1.17
2023-03-19T12:19:13.144Z,0.90
2023-03-19T12:21:58.837Z,1.13
2023-03-19T12:24:35.246Z,1.27
2023-03-19T12:27:05.894Z,0.75
2023-03-19T12:29:41.760Z,0.70
2023-03-19T12:32:54.117Z,0.88
2023-03-19T12:35:28.462Z,1.02
2023-03-19T12:38:18.637Z,0.90
2023-03-19T12:41:31.687Z,1.85
2023-03-19T12:44:22.037Z,1.00
2023-03-19T12:47:07.070Z,1.20
2023-03-19T12:49:44.694Z,1.25
2023-03-19T12:52:31.578Z,0.70
2023-03-19T12:54:59.367Z,1.08
2023-03-19T12:57:42.239Z,1.58
2023-03-19T13:00:24.951Z,1.35
2023-03-19T13:03:09.810Z,1.45
2023-03-19T13:05:46.012Z,1.92
2023-03-19T13:08:34.309Z,1.52
2023-03-19T13:11:08.867Z,1.52
2023-03-19T13:13:55.926Z,2.00
2023-03-19T13:16:50.532Z,1.10
2023-03-19T13:19:30.309Z,1.10
2023-03-19T13:22:06.660Z,1.25
2023-03-19T13:24:38.808Z,1.13
2023-03-19T13:27:15.767Z,1.00
2023-03-19T13:29:58.632Z,0.85
2023-03-19T13:32:44.750Z,0.77
2023-03-19T13:35:28.439Z,0.98
2023-03-19T13:38:07.899Z,1.33
2023-03-19T13:40:47.916Z,0.95
2023-03-19T13:43:30.737Z,1.35
2023-03-19T13:46:04.735Z,1.10
2023-03-19T13:48:33.235Z,1.83
2023-03-19T13:51:12.978Z,1.15
2023-03-19T13:53:52.241Z,1.60
2023-03-19T13:56:29.670Z,1.30
2023-03-19T13:59:23.924Z,1.77
2023-03-19T14:01:51.808Z,1.05
2023-03-19T14:04:31.833Z,1.27
2023-03-19T14:07:24.425Z,1.15
2023-03-19T14:10:08.609Z,1.02
2023-03-19T14:12:41.223Z,1.15
2023-03-19T14:15:11.871Z,1.35
2023-03-19T14:17:53.633Z,1.55
2023-03-19T14:20:39.773Z,1.10
2023-03-19T14:23:08.993Z,0.50
2023-03-19T14:26:07.032Z,1.00
2023-03-19T14:28:38.687Z,1.08
2023-03-19T14:31:17.777Z,0.80
2023-03-19T14:33:58.372Z,1.13
2023-03-19T14:36:27.820Z,0.80
2023-03-19T14:39:08.957Z,0.70
2023-03-19T14:41:43.858Z,1.10
2023-03-19T14:44:34.811Z,1.33
2023-03-19T14:47:24.507Z,0.77
2023-03-19T14:50:11.440Z,1.35
2023-03-19T14:52:50.541Z,1.15
2023-03-19T14:55:18.318Z,0.85
2023-03-19T14:57:45.912Z,0.70
2023-03-19T15:00:17.518Z,0.70
2023-03-19T15:02:50.284Z,1.20
2023-03-19T15:05:50.339Z,1.02
2023-03-19T15:08:23.237Z,0.90
2023-03-19T15:11:09.987Z,0.80
2023-03-19T15:13:37.637Z,0.65
2023-03-19T15:16:33.014Z,0.68
2023-03-19T15:19:01.361Z,0.95
2023-03-19T15:21:32.255Z,0.80
2023-03-19T15:24:00.593Z,0.73
2023-03-19T15:26:35.998Z,2.67
2023-03-19T15:29:04.686Z,0.68
2023-03-19T15:31:57.530Z,0.73
2023-03-19T15:34:32.638Z,1.13
2023-03-19T15:37:15.156Z,0.75
2023-03-19T15:39:55.562Z,0.98
2023-03-19T15:42:26.296Z,1.23
2023-03-19T15:45:02.399Z,0.98
2023-03-19T15:47:33.345Z,2.55
2023-03-19T15:50:19.128Z,0.70
2023-03-19T15:52:58.194Z,1.38
2023-03-19T15:55:26.696Z,0.73
2023-03-19T15:57:59.929Z,1.50
2023-03-19T16:00:30.417Z,0.80
2023-03-19T16:02:58.501Z,0.80
2023-03-19T16:05:31.010Z,0.80
2023-03-19T16:08:01.134Z,1.60
2023-03-19T16:12:57.430Z,1.10
2023-03-19T16:15:34.273Z,0.90
2023-03-19T16:18:24.006Z,1.63
2023-03-19T16:21:01.986Z,0.90
2023-03-19T16:23:40.830Z,2.63
2023-03-19T16:26:24.447Z,0.80
2023-03-19T16:29:06.941Z,1.00
2023-03-19T16:31:46.479Z,1.45
2023-03-19T16:34:37.400Z,1.08
2023-03-19T16:37:33.942Z,1.27
2023-03-19T16:40:21.730Z,1.27
2023-03-19T16:42:55.958Z,1.90
2023-03-19T16:45:28.123Z,2.05
2023-03-19T16:47:57.939Z,1.98
2023-03-19T16:53:03.529Z,0.88
2023-03-19T16:55:36.284Z,0.95
2023-03-19T16:58:34.794Z,1.88
2023-03-19T17:01:18.108Z,0.60
2023-03-19T17:03:46.994Z,0.80
2023-03-19T17:06:15.950Z,1.10
2023-03-19T17:08:44.430Z,0.73
2023-03-19T17:11:29.423Z,0.80
2023-03-19T17:13:59.435Z,0.60
2023-03-19T17:16:29.267Z,0.90
2023-03-19T17:18:57.445Z,0.90
2023-03-19T17:21:27.107Z,1.73
2023-03-19T17:23:55.499Z,0.88
2023-03-19T17:26:28.229Z,2.35
2023-03-19T17:28:56.813Z,1.08
2023-03-19T17:31:34.465Z,0.85
2023-03-19T17:34:23.649Z,0.88
2023-03-19T17:36:57.196Z,0.60
2023-03-19T17:39:26.127Z,0.60
2023-03-19T17:41:59.378Z,0.70
2023-03-19T17:44:28.158Z,1.35
2023-03-19T17:46:56.916Z,1.08
2023-03-19T17:49:27.658Z,0.77
2023-03-19T17:51:56.286Z,0.50
2023-03-19T17:54:26.762Z,1.45
2023-03-19T17:57:00.025Z,0.40
2023-03-19T17:59:29.355Z,0.68
2023-03-19T18:01:57.485Z,1.02
2023-03-19T18:04:25.624Z,0.60
2023-03-19T18:06:55.480Z,1.40
2023-03-19T18:11:53.272Z,0.85
2023-03-19T18:14:21.321Z,1.23
2023-03-19T18:16:49.290Z,0.93
2023-03-19T18:19:27.871Z,0.80
2023-03-19T18:21:55.670Z,0.57
2023-03-19T18:24:23.467Z,0.70
2023-03-19T18:26:54.066Z,0.63
2023-03-19T18:29:21.725Z,0.82
2023-03-19T18:31:51.174Z,1.00
2023-03-19T18:34:21.785Z,0.70
2023-03-19T18:36:49.439Z,0.50
2023-03-19T18:39:17.120Z,0.80
2023-03-19T18:41:44.918Z,1.27
2023-03-19T18:44:13.789Z,0.60
2023-03-19T18:46:42.473Z,1.00
2023-03-19T18:49:26.517Z,0.82
2023-03-19T18:52:02.634Z,0.88
2023-03-19T18:54:32.001Z,0.95
2023-03-19T18:57:01.246Z,0.80
2023-03-19T18:59:31.403Z,0.60
2023-03-19T19:02:14.714Z,0.88
2023-03-19T19:04:42.421Z,0.60
2023-03-19T19:07:15.861Z,1.33
2023-03-19T19:09:44.829Z,2.13
2023-03-19T19:12:18.383Z,1.10
2023-03-19T19:14:46.608Z,1.42
2023-03-19T19:17:24.101Z,2.08
2023-03-19T19:19:52.494Z,1.77
2023-03-19T19:22:20.581Z,2.28
2023-03-19T19:24:49.433Z,3.05
2023-03-19T19:27:23.406Z,3.83
2023-03-19T19:29:51.285Z,4.53
2023-03-19T19:32:25.071Z,4.03
2023-03-19T19:34:53.562Z,4.18
2023-03-19T19:37:23.434Z,4.07
2023-03-19T19:39:53.332Z,4.50
2023-03-19T19:42:22.777Z,4.85
2023-03-19T19:44:58.474Z,6.30
2023-03-19T19:47:27.845Z,5.95
2023-03-19T19:49:56.576Z,6.15
2023-03-19T19:52:24.172Z,5.40
2023-03-19T19:54:52.038Z,5.28
2023-03-19T19:57:24.898Z,4.40
2023-03-19T19:59:54.619Z,3.60
2023-03-19T20:02:28.777Z,4.75
2023-03-19T20:04:57.859Z,3.15
2023-03-19T20:07:25.724Z,3.70
2023-03-19T20:09:53.372Z,2.45
2023-03-19T20:12:29.392Z,2.50
2023-03-19T20:14:59.896Z,1.95
2023-03-19T20:17:28.154Z,1.58
2023-03-19T20:19:55.771Z,1.75
2023-03-19T20:22:23.462Z,2.28
2023-03-19T20:24:51.699Z,1.95
2023-03-19T20:27:23.504Z,2.25
2023-03-19T20:29:51.472Z,1.70
2023-03-19T20:32:36.144Z,1.75
2023-03-19T20:35:07.295Z,2.10
2023-03-19T20:37:34.897Z,0.93
2023-03-19T20:40:02.571Z,1.85
2023-03-19T20:42:32.278Z,2.35
2023-03-19T20:44:59.906Z,2.35
2023-03-19T20:47:29.113Z,1.92
2023-03-19T20:49:56.835Z,4.15
2023-03-19T20:52:24.467Z,1.20
2023-03-19T20:54:52.810Z,1.20
2023-03-19T20:57:29.111Z,1.55
2023-03-19T21:00:01.902Z,1.83
2023-03-19T21:02:29.625Z,1.75
2023-03-19T21:04:57.432Z,1.63
2023-03-19T21:07:33.779Z,1.40
2023-03-19T21:10:08.494Z,1.63
2023-03-19T21:12:36.309Z,1.33
2023-03-19T21:15:04.137Z,1.70
2023-03-19T21:17:31.787Z,1.25
2023-03-19T21:19:59.535Z,1.50
2023-03-19T21:22:30.668Z,1.52
2023-03-19T21:25:05.784Z,1.50
2023-03-19T21:27:44.644Z,2.05
2023-03-19T21:30:16.616Z,2.37
2023-03-19T21:32:44.201Z,2.28
2023-03-19T21:35:25.371Z,2.75
2023-03-19T21:37:53.913Z,2.20
2023-03-19T21:40:31.081Z,1.80
2023-03-19T21:43:02.151Z,1.30
2023-03-19T21:45:38.569Z,1.90
2023-03-19T21:48:23.026Z,3.33
2023-03-19T21:50:51.155Z,2.30
2023-03-19T21:53:19.447Z,1.67
2023-03-19T21:55:48.197Z,1.88
2023-03-19T21:58:22.880Z,1.40
2023-03-19T22:00:51.477Z,2.10
2023-03-19T22:03:21.581Z,2.00
2023-03-19T22:05:50.960Z,2.10
2023-03-19T22:08:20.629Z,2.20
2023-03-19T22:10:57.607Z,2.72
2023-03-19T22:13:35.492Z,2.45
2023-03-19T22:16:03.171Z,2.20
2023-03-19T22:18:32.073Z,1.80
2023-03-19T22:21:02.759Z,2.50
2023-03-19T22:23:30.662Z,2.20
2023-03-19T22:25:58.430Z,1.83
2023-03-19T22:28:34.592Z,2.67
2023-03-19T22:31:04.210Z,2.35
2023-03-19T22:33:32.660Z,1.73
2023-03-19T22:36:00.371Z,2.50
2023-03-19T22:38:27.900Z,2.80
2023-03-19T22:40:56.460Z,2.15
2023-03-19T22:43:36.672Z,2.70
2023-03-19T22:46:16.286Z,2.58
2023-03-19T22:48:47.973Z,2.10
2023-03-19T22:51:18.649Z,2.70
2023-03-19T22:53:46.488Z,2.10
2023-03-19T22:56:15.117Z,2.40
2023-03-19T22:58:43.849Z,2.67
2023-03-19T23:01:20.711Z,1.98
2023-03-19T23:03:49.951Z,1.42
2023-03-19T23:06:30.161Z,1.70
2023-03-19T23:08:58.789Z,1.63
2023-03-19T23:11:27.032Z,1.60
2023-03-19T23:13:56.558Z,1.65
2023-03-19T23:16:25.105Z,2.65
2023-03-19T23:21:21.549Z,2.53
2023-03-19T23:23:49.836Z,1.58
2023-03-19T23:26:33.527Z,2.08
2023-03-19T23:29:04.967Z,1.80
2023-03-19T23:31:34.398Z,2.78
2023-03-19T23:34:02.180Z,1.55
2023-03-19T23:36:29.759Z,2.17
2023-03-19T23:38:57.598Z,2.60
2023-03-19T23:41:27.099Z,1.63
2023-03-19T23:43:55.426Z,2.10
2023-03-19T23:46:23.114Z,2.63
2023-03-19T23:48:50.788Z,2.10
2023-03-19T23:51:18.438Z,1.85
2023-03-19T23:53:46.425Z,1.90
2023-03-19T23:56:26.298Z,2.65
2023-03-19T23:58:58.819Z,2.20
